createdAt,value
2017-06-27T00:02:00.926Z,3.83
2017-06-27T00:04:28.422Z,6.03
2017-06-27T00:06:55.914Z,3.62
2017-06-27T00:09:24.323Z,4.12
2017-06-27T00:11:51.851Z,5.45
2017-06-27T00:14:20.157Z,3.90
2017-06-27T00:16:47.817Z,3.55
2017-06-27T00:19:15.314Z,6.87
2017-06-27T00:21:42.814Z,5.22
2017-06-27T00:24:11.106Z,3.78
2017-06-27T00:26:38.605Z,4.70
2017-06-27T00:29:06.098Z,2.53
2017-06-27T00:31:33.634Z,5.85
2017-06-27T00:34:01.167Z,11.27
2017-06-27T00:36:28.717Z,6.78
2017-06-27T00:38:56.241Z,3.58
2017-06-27T00:41:23.829Z,4.40
2017-06-27T00:43:51.362Z,3.60
2017-06-27T00:46:19.671Z,5.45
2017-06-27T00:48:47.231Z,8.48
2017-06-27T00:51:14.816Z,4.28
2017-06-27T00:53:42.350Z,4.97
2017-06-27T00:56:10.218Z,3.03
2017-06-27T00:58:37.774Z,6.75
2017-06-27T01:01:05.338Z,5.60
2017-06-27T01:03:32.862Z,5.62
2017-06-27T01:06:00.355Z,3.05
2017-06-27T01:08:27.918Z,3.35
2017-06-27T01:10:55.479Z,8.43
2017-06-27T01:13:23.034Z,3.92
2017-06-27T01:15:50.599Z,6.03
2017-06-27T01:18:18.357Z,3.40
2017-06-27T01:20:45.909Z,6.12
2017-06-27T01:23:13.410Z,5.97
2017-06-27T01:25:40.934Z,6.40
2017-06-27T01:28:08.497Z,3.97
2017-06-27T01:30:36.039Z,5.95
2017-06-27T01:33:04.326Z,3.20
2017-06-27T01:35:31.895Z,5.15
2017-06-27T01:37:59.450Z,4.40
2017-06-27T01:40:26.942Z,4.15
2017-06-27T01:42:54.434Z,3.95
2017-06-27T01:45:22.027Z,4.40
2017-06-27T01:47:49.590Z,8.55
2017-06-27T01:50:17.094Z,5.60
2017-06-27T01:52:44.586Z,7.62
2017-06-27T01:55:12.983Z,4.93
2017-06-27T01:57:40.546Z,3.87
2017-06-27T02:00:08.102Z,5.62
2017-06-27T02:02:35.766Z,5.87
2017-06-27T02:05:03.258Z,6.90
2017-06-27T02:07:30.786Z,5.70
2017-06-27T02:09:58.342Z,4.78
2017-06-27T02:12:25.870Z,9.25
2017-06-27T02:14:53.462Z,4.70
2017-06-27T02:17:21.026Z,5.03
2017-06-27T02:19:48.586Z,8.82
2017-06-27T02:22:16.142Z,3.80
2017-06-27T02:24:43.662Z,5.35
2017-06-27T02:27:11.162Z,3.80
2017-06-27T02:29:38.730Z,5.90
2017-06-27T02:32:06.382Z,4.87
2017-06-27T02:34:33.915Z,6.25
2017-06-27T02:37:02.226Z,4.97
2017-06-27T02:39:29.719Z,4.95
2017-06-27T02:41:57.238Z,5.32
2017-06-27T02:44:24.770Z,5.20
2017-06-27T02:46:53.175Z,7.12
2017-06-27T02:49:20.682Z,6.47
2017-06-27T02:51:48.281Z,3.75
2017-06-27T02:54:16.674Z,7.18
2017-06-27T02:56:44.250Z,7.40
2017-06-27T02:59:11.999Z,4.45
2017-06-27T03:01:39.500Z,5.22
2017-06-27T03:04:06.995Z,4.37
2017-06-27T03:06:35.394Z,6.18
2017-06-27T03:09:02.893Z,7.07
2017-06-27T03:11:30.419Z,7.87
2017-06-27T03:13:57.974Z,8.48
2017-06-27T03:16:25.638Z,6.25
2017-06-27T03:18:53.130Z,8.80
2017-06-27T03:21:20.630Z,8.93
2017-06-27T03:23:49.034Z,6.47
2017-06-27T03:26:16.537Z,7.20
2017-06-27T03:28:44.030Z,4.22
2017-06-27T03:31:12.319Z,4.62
2017-06-27T03:33:39.816Z,6.95
2017-06-27T03:36:07.339Z,5.65
2017-06-27T03:38:34.871Z,6.65
2017-06-27T03:41:02.566Z,5.65
2017-06-27T03:43:30.131Z,7.07
2017-06-27T03:45:57.691Z,6.28
2017-06-27T03:48:25.453Z,7.03
2017-06-27T03:50:53.011Z,8.82
2017-06-27T03:53:20.574Z,4.93
2017-06-27T03:55:48.110Z,6.15
2017-06-27T03:58:16.413Z,4.05
2017-06-27T04:00:43.909Z,6.28
2017-06-27T04:03:11.422Z,6.57
2017-06-27T04:05:38.919Z,4.93
2017-06-27T04:08:06.437Z,7.10
2017-06-27T04:10:34.722Z,6.85
2017-06-27T04:13:02.282Z,4.70
2017-06-27T04:15:29.802Z,6.03
2017-06-27T04:17:57.323Z,6.00
2017-06-27T04:20:25.026Z,5.90
2017-06-27T04:22:52.526Z,5.37
2017-06-27T04:25:20.087Z,4.70
2017-06-27T04:27:47.607Z,7.05
2017-06-27T04:30:15.201Z,7.00
2017-06-27T04:32:42.722Z,6.07
2017-06-27T04:35:10.318Z,4.37
2017-06-27T04:37:37.882Z,4.62
2017-06-27T04:40:05.443Z,7.40
2017-06-27T04:42:32.979Z,7.53
2017-06-27T04:45:01.310Z,5.57
2017-06-27T04:47:28.811Z,5.60
2017-06-27T04:49:56.331Z,6.78
2017-06-27T04:52:23.826Z,5.75
2017-06-27T04:54:51.415Z,8.80
2017-06-27T04:57:18.974Z,7.07
2017-06-27T04:59:46.535Z,5.43
2017-06-27T05:02:14.298Z,7.32
2017-06-27T05:04:41.859Z,6.55
2017-06-27T05:07:09.362Z,6.30
2017-06-27T05:09:36.982Z,6.53
2017-06-27T05:12:04.486Z,7.30
2017-06-27T05:14:31.998Z,6.70
2017-06-27T05:16:59.563Z,5.87
2017-06-27T05:19:27.123Z,5.78
2017-06-27T05:21:54.683Z,7.20
2017-06-27T05:24:22.246Z,9.70
2017-06-27T05:26:49.738Z,8.32
2017-06-27T05:29:17.358Z,9.23
2017-06-27T05:31:44.862Z,12.13
2017-06-27T05:34:12.356Z,13.35
2017-06-27T05:36:40.754Z,10.23
2017-06-27T05:39:08.254Z,7.30
2017-06-27T05:41:35.754Z,11.35
2017-06-27T05:44:03.306Z,8.38
2017-06-27T05:46:31.573Z,8.02
2017-06-27T05:48:59.166Z,8.88
2017-06-27T05:51:26.689Z,7.95
2017-06-27T05:53:55.106Z,10.63
2017-06-27T05:56:22.630Z,10.23
2017-06-27T05:58:51.086Z,7.65
2017-06-27T06:01:18.614Z,7.40
2017-06-27T06:03:46.166Z,7.32
2017-06-27T06:06:13.671Z,8.25
2017-06-27T06:08:41.294Z,6.70
2017-06-27T06:11:08.794Z,8.63
2017-06-27T06:13:36.406Z,12.30
2017-06-27T06:16:03.910Z,8.52
2017-06-27T06:18:31.626Z,6.22
2017-06-27T06:20:59.131Z,4.32
2017-06-27T06:23:26.646Z,6.10
2017-06-27T06:25:54.202Z,8.77
2017-06-27T06:28:21.710Z,6.50
2017-06-27T06:30:49.254Z,9.55
2017-06-27T06:33:16.802Z,12.18
2017-06-27T06:35:44.303Z,8.35
2017-06-27T06:38:11.830Z,8.70
2017-06-27T06:40:39.330Z,15.23
2017-06-27T06:43:06.918Z,8.30
2017-06-27T06:45:34.482Z,12.50
2017-06-27T06:48:02.046Z,7.03
2017-06-27T06:50:29.711Z,10.13
2017-06-27T06:52:57.218Z,8.50
2017-06-27T06:55:24.825Z,5.72
2017-06-27T06:57:52.353Z,7.80
2017-06-27T07:00:20.658Z,7.82
2017-06-27T07:02:48.223Z,10.47
2017-06-27T07:05:15.785Z,9.90
2017-06-27T07:07:43.282Z,7.43
2017-06-27T07:10:10.799Z,7.20
2017-06-27T07:12:38.357Z,7.50
2017-06-27T07:15:05.923Z,6.87
2017-06-27T07:17:33.450Z,10.50
2017-06-27T07:20:01.745Z,7.50
2017-06-27T07:22:30.011Z,9.93
2017-06-27T07:24:58.311Z,5.80
2017-06-27T07:27:25.931Z,6.40
2017-06-27T07:29:53.430Z,9.03
2017-06-27T07:32:20.928Z,6.80
2017-06-27T07:34:48.471Z,8.00
2017-06-27T07:37:16.005Z,7.37
2017-06-27T07:39:43.563Z,7.60
2017-06-27T07:42:11.122Z,4.83
2017-06-27T07:44:38.682Z,8.47
2017-06-27T07:47:06.174Z,7.83
2017-06-27T07:49:33.703Z,5.23
2017-06-27T07:52:01.362Z,6.90
2017-06-27T07:54:28.926Z,10.10
2017-06-27T07:56:56.429Z,6.93
2017-06-27T07:59:24.246Z,14.40
2017-06-27T08:01:51.810Z,7.00
2017-06-27T08:04:19.313Z,11.03
2017-06-27T08:06:46.926Z,7.77
2017-06-27T08:09:14.591Z,8.50
2017-06-27T08:11:42.090Z,9.00
2017-06-27T08:14:09.625Z,6.93
2017-06-27T08:16:37.170Z,10.33
2017-06-27T08:19:04.830Z,11.80
2017-06-27T08:21:32.498Z,5.60
2017-06-27T08:24:00.051Z,6.80
2017-06-27T08:26:27.546Z,11.80
2017-06-27T08:28:55.274Z,9.43
2017-06-27T08:31:22.774Z,7.77
2017-06-27T08:33:50.293Z,7.30
2017-06-27T08:36:17.810Z,9.07
2017-06-27T08:38:45.411Z,10.40
2017-06-27T08:41:12.914Z,8.33
2017-06-27T08:43:40.450Z,11.90
2017-06-27T08:46:07.990Z,8.80
2017-06-27T08:48:35.552Z,11.70
2017-06-27T08:51:03.050Z,13.10
2017-06-27T08:53:30.554Z,9.80
2017-06-27T08:55:58.838Z,6.80
2017-06-27T08:58:26.338Z,8.50
2017-06-27T09:00:53.834Z,6.90
2017-06-27T09:03:22.250Z,10.10
2017-06-27T09:05:49.806Z,7.80
2017-06-27T09:08:17.307Z,10.40
2017-06-27T09:10:44.843Z,7.30
2017-06-27T09:13:12.339Z,8.33
2017-06-27T09:15:39.942Z,18.53
2017-06-27T09:18:07.505Z,13.63
2017-06-27T09:20:35.042Z,12.47
2017-06-27T09:23:03.339Z,9.80
2017-06-27T09:25:30.834Z,6.00
2017-06-27T09:27:58.351Z,5.53
2017-06-27T09:30:25.915Z,5.93
2017-06-27T09:32:53.448Z,9.40
2017-06-27T09:35:21.750Z,7.60
2017-06-27T09:37:49.314Z,7.57
2017-06-27T09:40:16.978Z,6.80
2017-06-27T09:42:44.475Z,7.10
2017-06-27T09:45:11.966Z,7.13
2017-06-27T09:47:40.282Z,11.23
2017-06-27T09:50:07.932Z,6.03
2017-06-27T09:52:35.490Z,9.70
2017-06-27T09:55:03.010Z,9.57
2017-06-27T09:57:30.506Z,9.30
2017-06-27T09:59:58.991Z,12.30
2017-06-27T10:02:26.770Z,5.40
2017-06-27T10:04:54.457Z,7.90
2017-06-27T10:07:22.299Z,10.67
2017-06-27T10:09:49.931Z,7.87
2017-06-27T10:12:17.651Z,9.70
2017-06-27T10:14:45.491Z,9.10
2017-06-27T10:17:14.280Z,8.03
2017-06-27T10:19:42.967Z,7.97
2017-06-27T10:22:11.142Z,11.40
2017-06-27T10:24:39.212Z,7.80
2017-06-27T10:27:07.079Z,11.13
2017-06-27T10:29:34.947Z,10.50
2017-06-27T10:32:02.705Z,5.80
2017-06-27T10:34:30.299Z,7.57
2017-06-27T10:36:58.038Z,8.20
2017-06-27T10:39:26.823Z,8.37
2017-06-27T10:41:54.926Z,5.80
2017-06-27T10:44:22.503Z,5.77
2017-06-27T10:46:50.026Z,8.60
2017-06-27T10:49:17.589Z,8.93
2017-06-27T10:51:45.239Z,10.87
2017-06-27T10:54:12.902Z,5.90
2017-06-27T10:56:40.501Z,9.70
2017-06-27T10:59:08.778Z,9.63
2017-06-27T11:01:36.390Z,8.13
2017-06-27T11:04:03.946Z,8.00
2017-06-27T11:06:31.481Z,8.23
2017-06-27T11:08:59.746Z,6.27
2017-06-27T11:11:27.238Z,6.00
2017-06-27T11:13:54.917Z,4.67
2017-06-27T11:16:22.462Z,8.40
2017-06-27T11:18:50.226Z,9.83
2017-06-27T11:21:17.787Z,7.67
2017-06-27T11:23:45.347Z,9.13
2017-06-27T11:26:12.872Z,9.70
2017-06-27T11:28:40.567Z,9.40
2017-06-27T11:31:08.130Z,11.87
2017-06-27T11:33:35.626Z,8.17
2017-06-27T11:36:03.350Z,6.33
2017-06-27T11:38:30.910Z,8.73
2017-06-27T11:40:58.430Z,5.10
2017-06-27T11:43:25.952Z,7.30
2017-06-27T11:45:53.446Z,8.97
2017-06-27T11:48:21.055Z,7.90
2017-06-27T11:50:48.553Z,8.87
2017-06-27T11:53:16.047Z,6.93
2017-06-27T11:55:44.448Z,7.57
2017-06-27T11:58:11.945Z,8.87
2017-06-27T12:00:51.406Z,14.00
2017-06-27T12:03:30.707Z,8.87
2017-06-27T12:06:18.101Z,8.57
2017-06-27T12:11:52.750Z,5.43
2017-06-27T12:14:20.246Z,8.00
2017-06-27T12:16:47.771Z,10.13
2017-06-27T12:19:15.330Z,8.77
2017-06-27T12:21:42.891Z,11.67
2017-06-27T12:24:10.446Z,9.90
2017-06-27T12:26:38.010Z,6.50
2017-06-27T12:29:05.509Z,9.23
2017-06-27T12:31:33.030Z,8.40
2017-06-27T12:34:00.586Z,7.80
2017-06-27T12:36:28.152Z,14.50
2017-06-27T12:38:55.710Z,9.27
2017-06-27T12:41:23.241Z,9.10
2017-06-27T12:43:51.646Z,10.27
2017-06-27T12:46:19.146Z,14.37
2017-06-27T12:48:46.762Z,9.47
2017-06-27T12:51:14.334Z,10.03
2017-06-27T12:53:41.887Z,10.67
2017-06-27T12:56:09.447Z,7.27
2017-06-27T12:58:36.943Z,7.97
2017-06-27T13:01:04.462Z,7.40
2017-06-27T13:03:31.982Z,7.57
2017-06-27T13:05:59.582Z,8.50
2017-06-27T13:08:27.141Z,13.43
2017-06-27T13:10:54.703Z,7.10
2017-06-27T13:13:22.262Z,9.93
2017-06-27T13:15:49.822Z,6.97
2017-06-27T13:18:17.316Z,11.50
2017-06-27T13:20:45.042Z,7.93
2017-06-27T13:23:12.531Z,9.43
2017-06-27T13:25:40.023Z,6.50
2017-06-27T13:28:07.623Z,8.07
2017-06-27T13:30:35.182Z,7.77
2017-06-27T13:33:02.702Z,11.13
2017-06-27T13:35:30.226Z,6.93
2017-06-27T13:37:57.865Z,7.13
2017-06-27T13:40:25.422Z,9.20
2017-06-27T13:42:52.927Z,11.03
2017-06-27T13:45:20.479Z,8.40
2017-06-27T13:47:47.975Z,7.70
2017-06-27T13:50:15.474Z,7.50
2017-06-27T13:52:43.014Z,8.80
2017-06-27T13:55:10.514Z,11.00
2017-06-27T13:57:38.014Z,8.10
2017-06-27T14:00:06.419Z,8.70
2017-06-27T14:02:33.911Z,13.23
2017-06-27T14:05:01.431Z,19.20
2017-06-27T14:07:28.955Z,11.60
2017-06-27T14:09:56.550Z,9.30
2017-06-27T14:12:24.042Z,9.50
2017-06-27T14:14:51.578Z,12.03
2017-06-27T14:17:19.102Z,11.30
2017-06-27T14:19:47.366Z,9.07
2017-06-27T14:22:14.883Z,9.63
2017-06-27T14:24:42.434Z,10.53
2017-06-27T14:27:09.990Z,9.70
2017-06-27T14:29:37.764Z,12.00
2017-06-27T14:32:05.266Z,10.10
2017-06-27T14:34:32.875Z,8.60
2017-06-27T14:37:00.430Z,7.63
2017-06-27T14:39:27.994Z,10.80
2017-06-27T14:41:55.554Z,11.43
2017-06-27T14:44:23.114Z,11.07
2017-06-27T14:46:50.610Z,9.33
2017-06-27T14:49:18.130Z,10.23
2017-06-27T14:51:45.790Z,9.97
2017-06-27T14:54:13.350Z,10.20
2017-06-27T14:56:40.911Z,11.80
2017-06-27T14:59:08.474Z,12.03
2017-06-27T15:01:35.994Z,10.60
2017-06-27T15:04:03.590Z,12.10
2017-06-27T15:06:31.115Z,10.27
2017-06-27T15:08:58.710Z,12.40
2017-06-27T15:11:26.214Z,10.23
2017-06-27T15:13:53.754Z,9.87
2017-06-27T15:16:21.255Z,11.50
2017-06-27T15:18:48.854Z,10.33
2017-06-27T15:21:16.512Z,9.70
2017-06-27T15:23:44.010Z,13.77
2017-06-27T15:26:11.512Z,10.53
2017-06-27T15:28:39.906Z,10.30
2017-06-27T15:31:07.688Z,12.40
2017-06-27T15:33:35.211Z,18.27
2017-06-27T15:36:03.611Z,10.70
2017-06-27T15:38:31.198Z,12.17
2017-06-27T15:40:58.834Z,12.00
2017-06-27T15:43:26.330Z,11.37
2017-06-27T15:45:53.870Z,12.07
2017-06-27T15:48:21.392Z,14.23
2017-06-27T15:50:49.946Z,13.00
2017-06-27T15:53:17.662Z,13.53
2017-06-27T15:55:45.162Z,11.20
2017-06-27T15:58:22.999Z,13.10
2017-06-27T16:00:51.311Z,15.27
2017-06-27T16:03:18.879Z,13.40
2017-06-27T16:05:46.622Z,13.13
2017-06-27T16:08:14.179Z,13.20
2017-06-27T16:10:41.770Z,10.97
2017-06-27T16:13:09.386Z,11.73
2017-06-27T16:15:37.699Z,14.70
2017-06-27T16:18:05.199Z,12.40
2017-06-27T16:20:33.011Z,13.13
2017-06-27T16:23:00.535Z,15.13
2017-06-27T16:25:28.142Z,13.97
2017-06-27T16:27:55.806Z,13.43
2017-06-27T16:30:23.302Z,14.60
2017-06-27T16:32:50.906Z,15.13
2017-06-27T16:35:18.477Z,13.33
2017-06-27T16:37:46.029Z,15.77
2017-06-27T16:40:13.895Z,15.47
2017-06-27T16:42:41.462Z,14.40
2017-06-27T16:45:08.970Z,20.20
2017-06-27T16:47:36.682Z,15.87
2017-06-27T16:50:04.238Z,15.43
2017-06-27T16:52:31.898Z,17.63
2017-06-27T16:54:59.463Z,21.67
2017-06-27T16:57:27.011Z,17.83
2017-06-27T16:59:54.506Z,20.07
2017-06-27T17:02:22.007Z,18.20
2017-06-27T17:04:49.702Z,24.33
2017-06-27T17:07:17.366Z,16.23
2017-06-27T17:09:44.875Z,16.60
2017-06-27T17:12:12.407Z,15.83
2017-06-27T17:14:40.001Z,13.73
2017-06-27T17:17:07.635Z,16.60
2017-06-27T17:19:35.168Z,17.57
2017-06-27T17:22:02.675Z,15.03
2017-06-27T17:24:30.223Z,16.43
2017-06-27T17:26:58.014Z,15.80
2017-06-27T17:29:25.532Z,21.73
2017-06-27T17:31:53.168Z,16.70
2017-06-27T17:34:20.730Z,16.00
2017-06-27T17:36:48.237Z,18.20
2017-06-27T17:39:15.846Z,16.00
2017-06-27T17:41:43.413Z,16.40
2017-06-27T17:44:10.931Z,16.63
2017-06-27T17:46:38.457Z,16.43
2017-06-27T17:49:05.978Z,16.63
2017-06-27T17:51:33.488Z,17.07
2017-06-27T17:54:01.206Z,15.10
2017-06-27T17:56:28.769Z,16.13
2017-06-27T17:58:56.274Z,18.57
2017-06-27T18:01:24.379Z,16.27
2017-06-27T18:03:52.662Z,15.40
2017-06-27T18:06:20.165Z,16.50
2017-06-27T18:08:47.897Z,15.17
2017-06-27T18:11:15.462Z,16.20
2017-06-27T18:13:43.072Z,16.20
2017-06-27T18:16:11.115Z,17.47
2017-06-27T18:18:39.178Z,15.60
2017-06-27T18:21:07.153Z,16.67
2017-06-27T18:23:35.119Z,16.30
2017-06-27T18:26:03.329Z,16.70
2017-06-27T18:28:32.080Z,15.37
2017-06-27T18:30:59.950Z,18.57
2017-06-27T18:33:27.738Z,17.90
2017-06-27T18:35:55.343Z,15.87
2017-06-27T18:38:23.861Z,16.63
2017-06-27T18:40:51.725Z,16.80
2017-06-27T18:43:20.514Z,17.87
2017-06-27T18:45:48.279Z,21.17
2017-06-27T18:48:16.147Z,27.70
2017-06-27T18:50:44.116Z,15.77
2017-06-27T18:53:11.652Z,16.77
2017-06-27T18:55:39.218Z,18.37
2017-06-27T18:58:07.507Z,16.30
2017-06-27T19:00:35.010Z,17.00
2017-06-27T19:03:02.511Z,17.93
2017-06-27T19:05:30.078Z,17.00
2017-06-27T19:07:57.591Z,15.93
2017-06-27T19:10:25.194Z,17.07
2017-06-27T19:12:52.698Z,17.40
2017-06-27T19:15:20.240Z,17.43
2017-06-27T19:17:48.202Z,16.00
2017-06-27T19:20:15.712Z,16.90
2017-06-27T19:22:44.023Z,16.63
2017-06-27T19:25:11.544Z,20.00
2017-06-27T19:27:39.066Z,18.23
2017-06-27T19:30:06.602Z,18.17
2017-06-27T19:32:34.140Z,17.67
2017-06-27T19:35:02.533Z,17.43
2017-06-27T19:37:30.098Z,18.33
2017-06-27T19:39:57.658Z,16.30
2017-06-27T19:42:25.222Z,16.07
2017-06-27T19:44:52.779Z,17.33
2017-06-27T19:47:20.286Z,27.17
2017-06-27T19:49:47.799Z,16.40
2017-06-27T19:52:15.319Z,15.10
2017-06-27T19:54:43.631Z,17.83
2017-06-27T19:57:11.142Z,16.00
2017-06-27T19:59:38.750Z,16.60
2017-06-27T20:02:06.316Z,20.00
2017-06-27T20:04:33.867Z,16.70
2017-06-27T20:07:01.431Z,17.47
2017-06-27T20:09:28.990Z,16.47
2017-06-27T20:11:56.502Z,16.67
2017-06-27T20:14:24.112Z,15.97
2017-06-27T20:16:51.654Z,16.57
2017-06-27T20:19:20.051Z,17.43
2017-06-27T20:21:47.559Z,15.40
2017-06-27T20:24:15.175Z,16.47
2017-06-27T20:26:42.683Z,16.87
2017-06-27T20:29:10.182Z,18.20
2017-06-27T20:31:37.706Z,17.70
2017-06-27T20:34:05.307Z,17.00
2017-06-27T20:36:32.866Z,17.60
2017-06-27T20:39:00.430Z,16.87
2017-06-27T20:41:28.094Z,17.53
2017-06-27T20:43:55.646Z,17.13
2017-06-27T20:46:23.148Z,16.50
2017-06-27T20:48:50.774Z,18.37
2017-06-27T20:51:18.339Z,17.10
2017-06-27T20:53:45.871Z,17.07
2017-06-27T20:56:14.270Z,16.57
2017-06-27T20:58:41.826Z,16.53
2017-06-27T21:01:09.402Z,17.17
2017-06-27T21:03:36.914Z,16.90
2017-06-27T21:06:05.240Z,16.70
2017-06-27T21:08:32.783Z,16.60
2017-06-27T21:11:00.347Z,16.67
2017-06-27T21:13:27.857Z,17.80
2017-06-27T21:15:55.375Z,17.37
2017-06-27T21:18:22.915Z,18.27
2017-06-27T21:20:50.582Z,17.67
2017-06-27T21:23:18.087Z,17.53
2017-06-27T21:25:45.703Z,16.77
2017-06-27T21:28:13.270Z,18.37
2017-06-27T21:30:40.927Z,18.53
2017-06-27T21:33:08.487Z,17.73
2017-06-27T21:35:36.050Z,18.87
2017-06-27T21:38:03.611Z,16.33
2017-06-27T21:40:31.171Z,18.30
2017-06-27T21:42:58.675Z,19.53
2017-06-27T21:45:26.287Z,17.90
2017-06-27T21:47:53.846Z,17.10
2017-06-27T21:50:21.411Z,19.57
2017-06-27T21:52:48.935Z,22.37
2017-06-27T21:55:16.521Z,18.13
2017-06-27T21:57:44.089Z,18.00
2017-06-27T22:00:11.594Z,18.57
2017-06-27T22:02:39.134Z,16.40
2017-06-27T22:05:06.635Z,17.47
2017-06-27T22:07:34.947Z,17.27
2017-06-27T22:10:02.479Z,17.40
2017-06-27T22:12:30.779Z,17.87
2017-06-27T22:14:58.346Z,19.73
2017-06-27T22:17:25.905Z,17.20
2017-06-27T22:19:53.467Z,18.60
2017-06-27T22:22:20.966Z,18.00
2017-06-27T22:24:48.491Z,18.10
2017-06-27T22:27:16.022Z,17.40
2017-06-27T22:29:44.418Z,17.70
2017-06-27T22:32:11.918Z,17.33
2017-06-27T22:34:39.442Z,17.07
2017-06-27T22:37:07.198Z,18.23
2017-06-27T22:39:34.758Z,17.13
2017-06-27T22:42:02.270Z,17.23
2017-06-27T22:44:29.878Z,18.07
2017-06-27T22:46:57.402Z,17.50
2017-06-27T22:49:24.927Z,17.13
2017-06-27T22:51:52.450Z,18.30
2017-06-27T22:54:20.015Z,17.27
2017-06-27T22:56:47.578Z,17.47
2017-06-27T22:59:15.138Z,17.20
2017-06-27T23:01:42.675Z,16.50
2017-06-27T23:04:10.977Z,17.67
2017-06-27T23:06:38.488Z,16.07
2017-06-27T23:09:06.091Z,15.70
2017-06-27T23:11:33.650Z,17.40
2017-06-27T23:14:01.154Z,16.93
2017-06-27T23:16:28.874Z,17.17
2017-06-27T23:18:56.378Z,18.50
2017-06-27T23:21:23.881Z,16.00
2017-06-27T23:23:51.450Z,18.07
2017-06-27T23:26:18.946Z,18.70
2017-06-27T23:28:46.606Z,17.53
2017-06-27T23:31:14.233Z,20.67
2017-06-27T23:33:41.798Z,18.10
2017-06-27T23:36:09.563Z,16.50
2017-06-27T23:38:37.122Z,18.07
2017-06-27T23:41:04.686Z,17.30
2017-06-27T23:43:32.239Z,16.83
2017-06-27T23:45:59.798Z,17.80
2017-06-27T23:48:27.303Z,17.40
2017-06-27T23:50:54.922Z,15.60
2017-06-27T23:53:22.446Z,17.37
2017-06-27T23:55:49.960Z,18.47
2017-06-27T23:58:17.584Z,17.37
